sensor_id;sensor_type;location;lat;lon;timestamp;temperature;humidity
56761;DHT22;42633;44.494;11.356;2022-11-13T00:01:36;11.70;99.90
56761;DHT22;42633;44.494;11.356;2022-11-13T00:05:10;11.70;99.90
56761;DHT22;42633;44.494;11.356;2022-11-13T00:13:35;11.70;99.90
56761;DHT22;42633;44.494;11.356;2022-11-13T00:18:04;11.80;99.90
56761;DHT22;42633;44.494;11.356;2022-11-13T00:21:46;11.90;99.90
56761;DHT22;42633;44.494;11.356;2022-11-13T00:25:46;11.90;99.90
56761;DHT22;42633;44.494;11.356;2022-11-13T00:29:33;12.00;99.90
56761;DHT22;42633;44.494;11.356;2022-11-13T00:38:26;12.00;99.90
56761;DHT22;42633;44.494;11.356;2022-11-13T00:42:33;12.00;99.90
56761;DHT22;42633;44.494;11.356;2022-11-13T00:55:44;11.80;99.90
56761;DHT22;42633;44.494;11.356;2022-11-13T01:04:33;11.70;99.90
56761;DHT22;42633;44.494;11.356;2022-11-13T01:12:22;11.80;99.90
56761;DHT22;42633;44.494;11.356;2022-11-13T01:16:22;11.70;99.90
56761;DHT22;42633;44.494;11.356;2022-11-13T01:20:09;11.80;99.90
56761;DHT22;42633;44.494;11.356;2022-11-13T01:24:04;11.80;99.90
56761;DHT22;42633;44.494;11.356;2022-11-13T01:27:41;11.70;99.90
56761;DHT22;42633;44.494;11.356;2022-11-13T01:31:32;11.70;99.90
56761;DHT22;42633;44.494;11.356;2022-11-13T01:39:08;11.60;99.90
56761;DHT22;42633;44.494;11.356;2022-11-13T01:42:58;11.60;99.90
56761;DHT22;42633;44.494;11.356;2022-11-13T01:47:03;11.60;99.90
56761;DHT22;42633;44.494;11.356;2022-11-13T01:50:41;11.50;99.90
56761;DHT22;42633;44.494;11.356;2022-11-13T01:54:50;11.50;99.90
56761;DHT22;42633;44.494;11.356;2022-11-13T02:03:14;11.50;99.90
56761;DHT22;42633;44.494;11.356;2022-11-13T02:07:14;11.50;99.90
56761;DHT22;42633;44.494;11.356;2022-11-13T02:11:28;11.50;99.90
56761;DHT22;42633;44.494;11.356;2022-11-13T02:15:49;11.40;99.90
56761;DHT22;42633;44.494;11.356;2022-11-13T02:20:04;11.40;99.90
56761;DHT22;42633;44.494;11.356;2022-11-13T02:28:16;11.40;99.90
56761;DHT22;42633;44.494;11.356;2022-11-13T02:36:42;11.40;99.90
56761;DHT22;42633;44.494;11.356;2022-11-13T02:40:35;11.40;99.90
56761;DHT22;42633;44.494;11.356;2022-11-13T02:44:35;11.30;99.90
56761;DHT22;42633;44.494;11.356;2022-11-13T02:48:14;11.30;99.90
56761;DHT22;42633;44.494;11.356;2022-11-13T02:51:52;11.30;99.90
56761;DHT22;42633;44.494;11.356;2022-11-13T02:55:52;11.30;99.90
56761;DHT22;42633;44.494;11.356;2022-11-13T02:59:55;11.20;99.90
56761;DHT22;42633;44.494;11.356;2022-11-13T03:03:30;11.20;99.90
56761;DHT22;42633;44.494;11.356;2022-11-13T03:07:13;11.20;99.90
56761;DHT22;42633;44.494;11.356;2022-11-13T03:11:05;11.20;99.90
56761;DHT22;42633;44.494;11.356;2022-11-13T03:15:01;11.10;99.90
56761;DHT22;42633;44.494;11.356;2022-11-13T03:23:10;11.00;99.90
56761;DHT22;42633;44.494;11.356;2022-11-13T03:26:57;11.00;99.90
56761;DHT22;42633;44.494;11.356;2022-11-13T03:30:32;11.00;99.90
56761;DHT22;42633;44.494;11.356;2022-11-13T03:34:27;11.10;99.90
56761;DHT22;42633;44.494;11.356;2022-11-13T03:38:33;11.10;99.90
56761;DHT22;42633;44.494;11.356;2022-11-13T03:42:40;11.00;99.90
56761;DHT22;42633;44.494;11.356;2022-11-13T03:46:43;11.00;99.90
56761;DHT22;42633;44.494;11.356;2022-11-13T03:50:53;10.90;99.90
56761;DHT22;42633;44.494;11.356;2022-11-13T03:55:09;10.90;99.90
56761;DHT22;42633;44.494;11.356;2022-11-13T03:58:41;11.00;99.90
56761;DHT22;42633;44.494;11.356;2022-11-13T04:02:56;10.90;99.90
56761;DHT22;42633;44.494;11.356;2022-11-13T04:06:54;10.90;99.90
56761;DHT22;42633;44.494;11.356;2022-11-13T04:10:35;10.90;99.90
56761;DHT22;42633;44.494;11.356;2022-11-13T04:14:20;10.90;99.90
56761;DHT22;42633;44.494;11.356;2022-11-13T04:17:55;10.90;99.90
56761;DHT22;42633;44.494;11.356;2022-11-13T04:21:52;10.90;99.90
56761;DHT22;42633;44.494;11.356;2022-11-13T04:25:42;10.90;99.90
56761;DHT22;42633;44.494;11.356;2022-11-13T04:29:48;10.90;99.90
56761;DHT22;42633;44.494;11.356;2022-11-13T04:33:25;10.90;99.90
56761;DHT22;42633;44.494;11.356;2022-11-13T04:37:24;10.80;99.90
56761;DHT22;42633;44.494;11.356;2022-11-13T04:41:17;10.90;99.90
56761;DHT22;42633;44.494;11.356;2022-11-13T04:45:44;10.80;99.90
56761;DHT22;42633;44.494;11.356;2022-11-13T04:49:24;10.80;99.90
56761;DHT22;42633;44.494;11.356;2022-11-13T04:53:20;10.80;99.90
56761;DHT22;42633;44.494;11.356;2022-11-13T04:57:06;10.90;99.90
56761;DHT22;42633;44.494;11.356;2022-11-13T06:20:13;11.30;99.90
56761;DHT22;42633;44.494;11.356;2022-11-13T06:24:29;11.20;99.90
56761;DHT22;42633;44.494;11.356;2022-11-13T06:47:17;11.40;99.90
56761;DHT22;42633;44.494;11.356;2022-11-13T06:51:03;11.40;99.90
56761;DHT22;42633;44.494;11.356;2022-11-13T07:00:03;11.30;99.90
56761;DHT22;42633;44.494;11.356;2022-11-13T07:14:38;11.20;99.90
56761;DHT22;42633;44.494;11.356;2022-11-13T07:23:40;11.30;99.90
56761;DHT22;42633;44.494;11.356;2022-11-13T07:32:39;11.70;99.90
56761;DHT22;42633;44.494;11.356;2022-11-13T07:40:30;11.80;99.90
56761;DHT22;42633;44.494;11.356;2022-11-13T07:52:46;11.70;99.90
56761;DHT22;42633;44.494;11.356;2022-11-13T07:56:24;11.70;99.90
56761;DHT22;42633;44.494;11.356;2022-11-13T07:59:57;11.80;99.90
56761;DHT22;42633;44.494;11.356;2022-11-13T08:03:32;11.80;99.90
56761;DHT22;42633;44.494;11.356;2022-11-13T08:10:55;11.70;99.90
56761;DHT22;42633;44.494;11.356;2022-11-13T08:24:12;11.90;99.90
56761;DHT22;42633;44.494;11.356;2022-11-13T08:28:31;12.00;99.90
56761;DHT22;42633;44.494;11.356;2022-11-13T08:37:21;12.10;99.90
56761;DHT22;42633;44.494;11.356;2022-11-13T08:41:19;12.00;99.90
56761;DHT22;42633;44.494;11.356;2022-11-13T08:45:17;12.00;99.90
56761;DHT22;42633;44.494;11.356;2022-11-13T08:49:17;12.00;99.90
56761;DHT22;42633;44.494;11.356;2022-11-13T08:53:14;12.00;99.90
56761;DHT22;42633;44.494;11.356;2022-11-13T08:56:50;12.00;99.90
56761;DHT22;42633;44.494;11.356;2022-11-13T09:00:19;11.90;99.90
56761;DHT22;42633;44.494;11.356;2022-11-13T09:03:50;11.90;99.90
56761;DHT22;42633;44.494;11.356;2022-11-13T09:07:21;11.90;99.90
56761;DHT22;42633;44.494;11.356;2022-11-13T09:10:50;11.90;99.90
56761;DHT22;42633;44.494;11.356;2022-11-13T09:14:29;12.00;99.90
56761;DHT22;42633;44.494;11.356;2022-11-13T09:18:00;12.10;99.90
56761;DHT22;42633;44.494;11.356;2022-11-13T09:21:33;12.20;99.90
56761;DHT22;42633;44.494;11.356;2022-11-13T09:25:10;12.40;99.90
56761;DHT22;42633;44.494;11.356;2022-11-13T09:29:36;12.50;99.90
56761;DHT22;42633;44.494;11.356;2022-11-13T09:33:23;12.50;99.90
56761;DHT22;42633;44.494;11.356;2022-11-13T09:42:22;12.30;99.90
56761;DHT22;42633;44.494;11.356;2022-11-13T09:50:26;12.30;99.90
56761;DHT22;42633;44.494;11.356;2022-11-13T10:12:13;12.10;99.90
56761;DHT22;42633;44.494;11.356;2022-11-13T10:25:30;12.20;99.90
56761;DHT22;42633;44.494;11.356;2022-11-13T10:29:40;12.30;99.90
56761;DHT22;42633;44.494;11.356;2022-11-13T10:51:53;12.50;99.90
56761;DHT22;42633;44.494;11.356;2022-11-13T11:04:34;12.40;99.90
56761;DHT22;42633;44.494;11.356;2022-11-13T11:08:25;12.50;99.90
56761;DHT22;42633;44.494;11.356;2022-11-13T11:12:40;12.70;99.90
56761;DHT22;42633;44.494;11.356;2022-11-13T11:22:15;12.70;99.90
56761;DHT22;42633;44.494;11.356;2022-11-13T11:30:39;12.70;99.90
56761;DHT22;42633;44.494;11.356;2022-11-13T11:35:33;12.80;99.90
56761;DHT22;42633;44.494;11.356;2022-11-13T11:49:10;12.90;99.90
56761;DHT22;42633;44.494;11.356;2022-11-13T12:06:26;13.00;99.90
56761;DHT22;42633;44.494;11.356;2022-11-13T12:38:21;13.60;99.90
56761;DHT22;42633;44.494;11.356;2022-11-13T12:42:41;13.70;99.90
56761;DHT22;42633;44.494;11.356;2022-11-13T12:56:35;13.90;99.90
56761;DHT22;42633;44.494;11.356;2022-11-13T13:15:24;13.90;99.90
56761;DHT22;42633;44.494;11.356;2022-11-13T13:48:49;13.90;99.90
56761;DHT22;42633;44.494;11.356;2022-11-13T13:52:44;14.00;99.90
56761;DHT22;42633;44.494;11.356;2022-11-13T14:00:11;14.00;99.90
56761;DHT22;42633;44.494;11.356;2022-11-13T14:08:31;13.90;99.90
56761;DHT22;42633;44.494;11.356;2022-11-13T14:12:45;14.00;99.90
56761;DHT22;42633;44.494;11.356;2022-11-13T14:25:31;14.20;99.90
56761;DHT22;42633;44.494;11.356;2022-11-13T14:29:35;14.20;99.90
56761;DHT22;42633;44.494;11.356;2022-11-13T14:33:50;14.20;99.90
56761;DHT22;42633;44.494;11.356;2022-11-13T20:42:00;12.90;99.90
56761;DHT22;42633;44.494;11.356;2022-11-13T20:45:38;12.90;99.90
56761;DHT22;42633;44.494;11.356;2022-11-13T20:49:19;13.00;99.90
56761;DHT22;42633;44.494;11.356;2022-11-13T20:53:12;12.90;99.90
56761;DHT22;42633;44.494;11.356;2022-11-13T20:57:18;12.90;99.90
56761;DHT22;42633;44.494;11.356;2022-11-13T21:04:50;12.90;99.90
56761;DHT22;42633;44.494;11.356;2022-11-13T21:08:19;12.90;99.90
56761;DHT22;42633;44.494;11.356;2022-11-13T21:12:21;12.90;99.90
56761;DHT22;42633;44.494;11.356;2022-11-13T21:16:24;12.90;99.90
56761;DHT22;42633;44.494;11.356;2022-11-13T21:20:12;12.90;99.90
56761;DHT22;42633;44.494;11.356;2022-11-13T21:24:22;12.70;99.90
56761;DHT22;42633;44.494;11.356;2022-11-13T21:28:04;12.70;99.90
56761;DHT22;42633;44.494;11.356;2022-11-13T21:32:04;12.70;99.90
56761;DHT22;42633;44.494;11.356;2022-11-13T22:46:30;12.50;99.90
56761;DHT22;42633;44.494;11.356;2022-11-13T22:49:56;12.50;99.90
56761;DHT22;42633;44.494;11.356;2022-11-13T22:53:23;12.50;99.90
56761;DHT22;42633;44.494;11.356;2022-11-13T22:56:52;12.50;99.90
56761;DHT22;42633;44.494;11.356;2022-11-13T23:00:16;12.50;99.90
56761;DHT22;42633;44.494;11.356;2022-11-13T23:08:07;12.50;99.90
56761;DHT22;42633;44.494;11.356;2022-11-13T23:11:52;12.60;99.90
56761;DHT22;42633;44.494;11.356;2022-11-13T23:15:54;12.60;99.90
56761;DHT22;42633;44.494;11.356;2022-11-13T23:20:00;12.60;99.90
56761;DHT22;42633;44.494;11.356;2022-11-13T23:23:40;12.60;99.90
56761;DHT22;42633;44.494;11.356;2022-11-13T23:27:05;12.60;99.90
56761;DHT22;42633;44.494;11.356;2022-11-13T23:30:32;12.60;99.90
56761;DHT22;42633;44.494;11.356;2022-11-13T23:33:58;12.50;99.90
56761;DHT22;42633;44.494;11.356;2022-11-13T23:37:26;12.60;99.90
56761;DHT22;42633;44.494;11.356;2022-11-13T23:40:57;12.60;99.90
56761;DHT22;42633;44.494;11.356;2022-11-13T23:44:28;12.50;99.90
56761;DHT22;42633;44.494;11.356;2022-11-13T23:47:59;12.50;99.90
56761;DHT22;42633;44.494;11.356;2022-11-13T23:51:34;12.50;99.90
56761;DHT22;42633;44.494;11.356;2022-11-13T23:55:00;12.50;99.90
56761;DHT22;42633;44.494;11.356;2022-11-13T23:58:25;12.50;99.90
